ZBAARJOA

Guest
Details From ZBAA - Capital Intl
To RJOA - Hiroshima
Flight Number -
Tags Generated
Created
Modified
Stats Distance 850 nm / 1,574 km
Max Altitude 0 ft / 0 m
Waypoints 5
Social Downloads 0
Likes 0
Share VATSIM

Download

Looking for another format? Having issues loading an existing format? Contact us
Advertisement - Login to hide

Notes

Generated

Route

ZBAA DABOX SONGL HGE82 RJOA

ID Type Via Altitude Latitude Longitude Leg Dist Tot Dist Heading (true) Name
O ZBAA APT - 0 ft / 0 m 40.10211˚ 116.56969˚ - 0 nm - -
DABOX FIX - 0 ft / 0 m 38.60000˚ 122.00000˚ 267 nm 267 nm 108° / 111° -
SONGL FIX - 0 ft / 0 m 36.57370˚ 127.75851˚ 299 nm 567 nm 112° / 116° -
HGE82 FIX - 0 ft / 0 m 34.43668˚ 132.88379˚ 281 nm 849 nm 116° / 119° -
O RJOA APT - 0 ft / 0 m 34.43603˚ 132.90312˚ 0 nm 850 nm 92° / 92° -

Altitude Profile

Advertisement - Login to hide

Weather


0- 5 10 15 20 25 30 35+ Temperature / ° C

Clouds and Precipitation
Forecast for 2017-12-18 12:00 UTC. Updated 14 minutes ago

Ground ~20,000 ft ~40,000 ft Winds

ZBAA

Details ICAO ZBAA (PEK)
Name CAPITAL INTL
Region China
Timezone Asia/Shanghai (UTC+8.0)
Stats Elevation 116 ft / 35 m (AMSL)
Location 40.080118° 116.584563°
Runways 2
Magnetic Variation 6.953° W

METAR

ZBAA 180730Z 35006MPS CAVOK 05/M17 Q1030 NOSIG

Decode

TAF

Not found

Departure Runways

ID Width Length Bearing (true) Bearing (mag) Surface Threshold Offset Overrun Length
18L 197 ft / 60 m 12,436 ft / 3,790 m 173.12° 180.07° Asphalt 0 ft / 0 m 197 ft / 60 m
18R 164 ft / 50 m 10,506 ft / 3,202 m 174.11° 181.06° Asphalt 0 ft / 0 m 197 ft / 60 m
36L 164 ft / 50 m 10,506 ft / 3,202 m 354.11° 1.06° Asphalt 0 ft / 0 m 197 ft / 60 m
36R 197 ft / 60 m 12,436 ft / 3,790 m 353.12° 0.07° Asphalt 0 ft / 0 m 197 ft / 60 m

RJOA

Details ICAO RJOA (HIJ)
Name HIROSHIMA
Region Japan
Timezone Asia/Tokyo (UTC+9.0)
Stats Elevation 1,088 ft / 332 m (AMSL)
Location 34.436025° 132.919444°
Runways 1
Magnetic Variation 7.697° W

METAR

RJOA 180700Z 31008KT 9999 FEW030 BKN040 05/M04 Q1024

Decode

TAF

TAF RJOA 180506Z 1806/1912 32005KT 9999 FEW020 BECMG 1900/1903 30015KT BECMG 1906/1909 29005KT

Decode

Destination Runways

ID Width Length Bearing (true) Bearing (mag) Surface Threshold Offset Overrun Length
10 200 ft / 61 m 9,823 ft / 2,994 m 89.99° 97.69° Asphalt 0 ft / 0 m 210 ft / 64 m
28 200 ft / 61 m 9,823 ft / 2,994 m 270.01° 277.71° Asphalt 0 ft / 0 m 210 ft / 64 m

Approach Navaids

Runway Type Ident Frequency Range Bearing (true) Bearing (mag) Slope Elevation
10 Localiser IHG 108.70 MHz 18 nm / 33 km 90.00° 97.70° - 1,094 ft / 333 m (AMSL)
10 Glidescope IHG 108.70 MHz 10 nm / 19 km 90.00° 97.70° 3.00° 1,094 ft / 333 m (AMSL)
10 DME IHG 108.70 MHz 18 nm / 33 km - - - 1,094 ft / 333 m (AMSL)

Popular Alternatives